Adventuress — WCX8691 — position and weather

sailwx.info

Track history (hours):
 
Tides and Currents Weather Stations Pressure Air Temp Water Temp Dewpoint Dewpoint Depression Visibility Wind Speed Wind Dir Waves Ship Positions

Adventuress (United States)

Ship's website: http://www.soundexp.org/

Owner: SOUND EXPERIENCE, PORT TOWNSEND, WA. More information available from US FCC via Universal Licensing System and Coast Guard Vessel Documentation Center.

Last reported at 2015-Apr-02 04:25 UTC. Time now 2015-Apr-02 07:53 UTC.
Position N 47°16' W 122°26'.

Length 43 m.

Type: Passenger vessel. MMSI: 367323180.

Date/timePositionNaut miles runAvg speedWind from/ knotsBaromVisibWave heightAir tempDewpointWater temp
2015-Apr-02 04:25N 47°16' W 122°26'0 0.0
2015-Apr-02 03:17N 47°16' W 122°26'1 0.8
2015-Apr-02 02:33N 47°16' W 122°27'1 0.9
2015-Apr-02 01:32N 47°17' W 122°27'1 0.2
2015-Apr-01 20:33N 47°16' W 122°26'2 2.4
2015-Apr-01 19:33N 47°18' W 122°28'1 0.8
2015-Apr-01 18:33N 47°17' W 122°27'2 0.1
2015-Apr-01 01:20N 47°16' W 122°26'0 0.0
2015-Mar-31 13:16N 47°16' W 122°26'0 0.0
2015-Mar-31 12:22N 47°16' W 122°26'0 0.0
2015-Mar-30 19:33N 47°16' W 122°26'1 1.2
2015-Mar-30 18:29N 47°17' W 122°27'1 0.2
2015-Mar-30 11:32N 47°16' W 122°26'0 0.0
2015-Mar-30 06:14N 47°16' W 122°26'1 0.1
2015-Mar-30 00:07N 47°16' W 122°27'3 5.0
2015-Mar-29 23:33N 47°19' W 122°29'3 0.3
2015-Mar-29 10:15N 47°16' W 122°26'4 0.5
2015-Mar-29 02:33N 47°19' W 122°27'6 5.8
2015-Mar-29 01:33N 47°25' W 122°23'6 6.1
2015-Mar-29 00:33N 47°30' W 122°26'5 5.7
2015-Mar-28 23:37N 47°36' W 122°28'0 5.6
2015-Mar-28 23:33N 47°36' W 122°28'0 4.4
2015-Mar-28 23:27N 47°36' W 122°28'4 4.6
2015-Mar-28 22:33N 47°41' W 122°28'0 2.9
2015-Mar-28 22:32N 47°41' W 122°28'5 4.8
2015-Mar-28 21:33N 47°45' W 122°27'5 5.1
2015-Mar-28 20:33N 47°50' W 122°29'5 5.1
2015-Mar-28 19:33N 47°55' W 122°32'  
2015-Mar-25 23:33N 47°57' W 122°31'7 6.9
2015-Mar-25 22:34N 47°51' W 122°28'043.2
2015-Mar-25 22:33N 47°50' W 122°28'0 6.5
2015-Mar-25 22:30N 47°50' W 122°28'5 5.0
2015-Mar-25 21:33N 47°46' W 122°25'0 6.7
2015-Mar-25 21:29N 47°45' W 122°25'4 4.7
2015-Mar-25 20:33N 47°41' W 122°24'0 0.0
2015-Mar-25 20:24N 47°41' W 122°24'1 1.0
2015-Mar-25 19:33N 47°42' W 122°25'0 1.4
2015-Mar-25 19:29N 47°42' W 122°25'1 1.3
2015-Mar-25 18:33N 47°40' W 122°26'0 2.2
2015-Mar-25 18:29N 47°41' W 122°26'1 0.0
2015-Mar-24 03:11N 47°41' W 122°24'0 0.0
2015-Mar-24 01:23N 47°41' W 122°24'0 0.0
2015-Mar-23 22:32N 47°41' W 122°24'0 0.0
2015-Mar-23 21:17N 47°41' W 122°24'0 0.0
2015-Mar-23 19:26N 47°41' W 122°24'0 0.0
2015-Mar-23 19:05N 47°41' W 122°24'1 1.5
2015-Mar-23 18:34N 47°42' W 122°25'0 1.4
2015-Mar-23 18:30N 47°42' W 122°25'1 1.3
2015-Mar-23 17:33N 47°41' W 122°26'0 1.4
2015-Mar-23 17:30N 47°41' W 122°25'1 0.7
2015-Mar-23 16:23N 47°41' W 122°24'0 0.0
2015-Mar-23 15:11N 47°41' W 122°24'0 0.0
2015-Mar-23 14:23N 47°41' W 122°24'0 0.0
2015-Mar-23 13:32N 47°41' W 122°24'0 0.0
2015-Mar-23 12:05N 47°41' W 122°24'0 0.0
2015-Mar-23 11:32N 47°41' W 122°24'0 0.0
2015-Mar-23 10:29N 47°41' W 122°24'0 0.0
2015-Mar-23 09:29N 47°41' W 122°24'0 0.0
2015-Mar-23 08:08N 47°41' W 122°24'0 0.0
2015-Mar-23 07:08N 47°41' W 122°24'0 0.0
2015-Mar-23 06:23N 47°41' W 122°24'0 0.0
2015-Mar-23 05:20N 47°41' W 122°24'  
Track history (hours):
 
Tides and Currents Weather Stations Pressure Air Temp Water Temp Dewpoint Dewpoint Depression Visibility Wind Speed Wind Dir Waves Ship Positions

Adventuress (United States)

Ship's website: http://www.soundexp.org/

Owner: SOUND EXPERIENCE, PORT TOWNSEND, WA. More information available from US FCC via Universal Licensing System and Coast Guard Vessel Documentation Center.

Last reported at 2015-Apr-02 04:25 UTC. Time now 2015-Apr-02 07:53 UTC.
Position N 47°16' W 122°26'.

Length 43 m.

Type: Passenger vessel. MMSI: 367323180.

Date/timePositionNaut miles runAvg speedWind from/ knotsBaromVisibWave heightAir tempDewpointWater temp
2015-Apr-02 04:25N 47°16' W 122°26'0 0.0
2015-Apr-02 03:17N 47°16' W 122°26'1 0.8
2015-Apr-02 02:33N 47°16' W 122°27'1 0.9
2015-Apr-02 01:32N 47°17' W 122°27'1 0.2
2015-Apr-01 20:33N 47°16' W 122°26'2 2.4
2015-Apr-01 19:33N 47°18' W 122°28'1 0.8
2015-Apr-01 18:33N 47°17' W 122°27'2 0.1
2015-Apr-01 01:20N 47°16' W 122°26'0 0.0
2015-Mar-31 13:16N 47°16' W 122°26'0 0.0
2015-Mar-31 12:22N 47°16' W 122°26'0 0.0
2015-Mar-30 19:33N 47°16' W 122°26'1 1.2
2015-Mar-30 18:29N 47°17' W 122°27'1 0.2
2015-Mar-30 11:32N 47°16' W 122°26'0 0.0
2015-Mar-30 06:14N 47°16' W 122°26'1 0.1
2015-Mar-30 00:07N 47°16' W 122°27'3 5.0
2015-Mar-29 23:33N 47°19' W 122°29'3 0.3
2015-Mar-29 10:15N 47°16' W 122°26'4 0.5
2015-Mar-29 02:33N 47°19' W 122°27'6 5.8
2015-Mar-29 01:33N 47°25' W 122°23'6 6.1
2015-Mar-29 00:33N 47°30' W 122°26'5 5.7
2015-Mar-28 23:37N 47°36' W 122°28'0 5.6
2015-Mar-28 23:33N 47°36' W 122°28'0 4.4
2015-Mar-28 23:27N 47°36' W 122°28'4 4.6
2015-Mar-28 22:33N 47°41' W 122°28'0 2.9
2015-Mar-28 22:32N 47°41' W 122°28'5 4.8
2015-Mar-28 21:33N 47°45' W 122°27'5 5.1
2015-Mar-28 20:33N 47°50' W 122°29'5 5.1
2015-Mar-28 19:33N 47°55' W 122°32'  
2015-Mar-25 23:33N 47°57' W 122°31'7 6.9
2015-Mar-25 22:34N 47°51' W 122°28'043.2
2015-Mar-25 22:33N 47°50' W 122°28'0 6.5
2015-Mar-25 22:30N 47°50' W 122°28'5 5.0
2015-Mar-25 21:33N 47°46' W 122°25'0 6.7
2015-Mar-25 21:29N 47°45' W 122°25'4 4.7
2015-Mar-25 20:33N 47°41' W 122°24'0 0.0
2015-Mar-25 20:24N 47°41' W 122°24'1 1.0
2015-Mar-25 19:33N 47°42' W 122°25'0 1.4
2015-Mar-25 19:29N 47°42' W 122°25'1 1.3
2015-Mar-25 18:33N 47°40' W 122°26'0 2.2
2015-Mar-25 18:29N 47°41' W 122°26'1 0.0
2015-Mar-24 03:11N 47°41' W 122°24'0 0.0
2015-Mar-24 01:23N 47°41' W 122°24'0 0.0
2015-Mar-23 22:32N 47°41' W 122°24'0 0.0
2015-Mar-23 21:17N 47°41' W 122°24'0 0.0
2015-Mar-23 19:26N 47°41' W 122°24'0 0.0
2015-Mar-23 19:05N 47°41' W 122°24'1 1.5
2015-Mar-23 18:34N 47°42' W 122°25'0 1.4
2015-Mar-23 18:30N 47°42' W 122°25'1 1.3
2015-Mar-23 17:33N 47°41' W 122°26'0 1.4
2015-Mar-23 17:30N 47°41' W 122°25'1 0.7
2015-Mar-23 16:23N 47°41' W 122°24'0 0.0
2015-Mar-23 15:11N 47°41' W 122°24'0 0.0
2015-Mar-23 14:23N 47°41' W 122°24'0 0.0
2015-Mar-23 13:32N 47°41' W 122°24'0 0.0
2015-Mar-23 12:05N 47°41' W 122°24'0 0.0
2015-Mar-23 11:32N 47°41' W 122°24'0 0.0
2015-Mar-23 10:29N 47°41' W 122°24'0 0.0
2015-Mar-23 09:29N 47°41' W 122°24'0 0.0
2015-Mar-23 08:08N 47°41' W 122°24'0 0.0
2015-Mar-23 07:08N 47°41' W 122°24'0 0.0
2015-Mar-23 06:23N 47°41' W 122°24'0 0.0
2015-Mar-23 05:20N 47°41' W 122°24'  

Dump ship's entire track history